createdAt,value
2022-11-15T00:00:57.043Z,79.00
2022-11-15T00:03:26.275Z,79.10
2022-11-15T00:05:53.372Z,79.20
2022-11-15T00:08:20.276Z,79.40
2022-11-15T00:11:01.405Z,79.40
2022-11-15T00:13:29.332Z,79.50
2022-11-15T00:16:00.521Z,79.50
2022-11-15T00:18:27.382Z,79.50
2022-11-15T00:20:53.954Z,79.60
2022-11-15T00:23:20.567Z,79.60
2022-11-15T00:25:47.165Z,79.70
2022-11-15T00:28:13.831Z,79.90
2022-11-15T00:30:40.396Z,80.10
2022-11-15T00:33:07.589Z,80.10
2022-11-15T00:35:34.836Z,80.20
2022-11-15T00:38:02.435Z,80.30
2022-11-15T00:40:29.338Z,80.30
2022-11-15T00:42:56.218Z,80.40
2022-11-15T00:45:23.301Z,80.50
2022-11-15T00:47:49.850Z,81.20
2022-11-15T00:50:16.812Z,80.40
2022-11-15T00:52:43.651Z,80.50
2022-11-15T00:55:20.060Z,80.50
2022-11-15T00:57:47.498Z,80.60
2022-11-15T01:00:14.855Z,80.60
2022-11-15T01:02:41.579Z,80.60
2022-11-15T01:05:08.927Z,80.80
2022-11-15T01:07:35.642Z,81.00
2022-11-15T01:10:02.274Z,81.10
2022-11-15T01:12:28.920Z,81.30
2022-11-15T01:14:55.547Z,81.40
2022-11-15T01:17:22.234Z,81.50
2022-11-15T01:19:48.830Z,81.50
2022-11-15T01:22:15.639Z,81.60
2022-11-15T01:24:42.316Z,81.60
2022-11-15T01:27:08.981Z,81.70
2022-11-15T01:29:35.734Z,81.70
2022-11-15T01:32:02.372Z,81.80
2022-11-15T01:34:28.934Z,81.80
2022-11-15T01:36:55.640Z,81.90
2022-11-15T01:39:22.183Z,82.00
2022-11-15T01:41:48.815Z,82.10
2022-11-15T01:44:34.339Z,82.10
2022-11-15T01:47:04.061Z,82.20
2022-11-15T01:49:34.732Z,82.10
2022-11-15T01:52:04.663Z,82.20
2022-11-15T01:54:31.772Z,82.30
2022-11-15T01:57:03.766Z,82.30
2022-11-15T01:59:30.572Z,82.40
2022-11-15T02:01:57.543Z,82.50
2022-11-15T02:04:27.726Z,82.40
2022-11-15T02:06:54.892Z,82.50
2022-11-15T02:09:21.660Z,82.50
2022-11-15T02:11:51.634Z,83.50
2022-11-15T02:14:20.950Z,82.70
2022-11-15T02:17:22.046Z,82.90
2022-11-15T02:20:16.593Z,82.90
2022-11-15T02:22:53.047Z,83.00
2022-11-15T02:25:40.918Z,83.10
2022-11-15T02:28:42.390Z,83.10
2022-11-15T02:31:18.112Z,83.10
2022-11-15T02:33:57.174Z,83.00
2022-11-15T02:36:29.848Z,83.10
2022-11-15T02:39:27.263Z,83.20
2022-11-15T02:42:40.709Z,83.20
2022-11-15T02:45:10.693Z,83.30
2022-11-15T02:47:44.955Z,83.30
2022-11-15T02:50:14.269Z,83.40
2022-11-15T02:52:40.872Z,83.50
2022-11-15T02:55:27.215Z,83.60
2022-11-15T02:57:59.327Z,83.70
2022-11-15T03:00:26.071Z,83.60
2022-11-15T03:03:01.823Z,83.70
2022-11-15T03:05:57.805Z,83.70
2022-11-15T03:08:37.862Z,83.80
2022-11-15T03:11:14.442Z,83.80
2022-11-15T03:13:57.736Z,83.80
2022-11-15T03:16:38.981Z,83.80
2022-11-15T03:19:24.269Z,83.80
2022-11-15T03:21:53.307Z,83.90
2022-11-15T03:24:26.063Z,84.10
2022-11-15T03:26:55.822Z,84.10
2022-11-15T03:29:28.226Z,84.00
2022-11-15T03:32:08.836Z,84.00
2022-11-15T03:35:09.614Z,84.00
2022-11-15T03:38:08.603Z,84.00
2022-11-15T03:40:40.552Z,84.10
2022-11-15T03:43:23.397Z,84.10
2022-11-15T03:46:02.607Z,84.20
2022-11-15T03:48:34.622Z,84.30
2022-11-15T03:51:01.470Z,84.30
2022-11-15T03:53:29.530Z,84.30
2022-11-15T03:55:56.377Z,84.20
2022-11-15T03:58:22.952Z,84.30
2022-11-15T04:00:49.670Z,84.40
2022-11-15T04:03:16.715Z,84.40
2022-11-15T04:05:43.259Z,84.30
2022-11-15T04:08:09.842Z,84.40
2022-11-15T04:10:36.393Z,84.40
2022-11-15T04:13:03.582Z,84.40
2022-11-15T04:15:30.858Z,84.50
2022-11-15T04:17:58.098Z,84.50
2022-11-15T04:20:45.823Z,84.50
2022-11-15T04:23:35.075Z,84.50
2022-11-15T04:26:11.129Z,84.60
2022-11-15T04:29:00.970Z,84.60
2022-11-15T04:31:28.126Z,84.70
2022-11-15T04:33:54.862Z,84.60
2022-11-15T04:36:40.714Z,84.60
2022-11-15T04:39:07.880Z,84.50
2022-11-15T04:41:34.598Z,84.50
2022-11-15T04:44:01.225Z,84.50
2022-11-15T04:46:28.349Z,84.50
2022-11-15T04:48:58.531Z,84.50
2022-11-15T04:51:25.767Z,84.50
2022-11-15T04:53:52.345Z,84.50
2022-11-15T04:56:18.976Z,84.40
2022-11-15T04:58:45.535Z,84.50
2022-11-15T05:01:15.467Z,84.60
2022-11-15T05:04:04.206Z,84.60
2022-11-15T05:06:31.366Z,84.60
2022-11-15T05:08:58.387Z,84.60
2022-11-15T05:11:25.286Z,84.60
2022-11-15T05:13:51.851Z,84.60
2022-11-15T05:16:18.420Z,84.60
2022-11-15T05:18:45.218Z,84.70
2022-11-15T05:21:15.218Z,84.60
2022-11-15T05:23:42.204Z,84.50
2022-11-15T05:26:09.805Z,84.50
2022-11-15T05:28:37.580Z,84.50
2022-11-15T05:31:05.588Z,84.50
2022-11-15T05:33:33.285Z,84.50
2022-11-15T05:36:13.330Z,84.50
2022-11-15T05:38:40.117Z,84.50
2022-11-15T05:41:07.429Z,84.50
2022-11-15T05:43:37.190Z,84.50
2022-11-15T05:46:06.097Z,84.50
2022-11-15T05:48:35.336Z,84.50
2022-11-15T05:51:03.610Z,84.60
2022-11-15T05:53:31.452Z,84.50
2022-11-15T05:55:58.393Z,84.60
2022-11-15T05:58:24.936Z,84.50
2022-11-15T06:00:51.564Z,84.50
2022-11-15T06:03:18.163Z,84.60
2022-11-15T06:05:44.743Z,84.50
2022-11-15T06:08:11.340Z,84.40
2022-11-15T06:10:37.891Z,84.30
2022-11-15T06:13:06.029Z,84.40
2022-11-15T06:15:36.081Z,84.50
2022-11-15T06:18:03.054Z,84.40
2022-11-15T06:20:30.698Z,84.50
2022-11-15T06:23:05.398Z,84.60
2022-11-15T06:25:32.197Z,84.60
2022-11-15T06:28:00.842Z,84.60
2022-11-15T06:30:28.378Z,84.60
2022-11-15T06:33:03.078Z,84.60
2022-11-15T06:35:30.765Z,84.70
2022-11-15T06:38:02.395Z,84.60
2022-11-15T06:40:28.939Z,84.60
2022-11-15T06:43:00.153Z,84.60
2022-11-15T06:45:27.339Z,84.50
2022-11-15T06:47:54.451Z,84.40
2022-11-15T06:50:21.141Z,84.20
2022-11-15T06:52:47.807Z,84.30
2022-11-15T06:55:14.440Z,84.30
2022-11-15T06:57:53.448Z,84.30
2022-11-15T07:00:21.644Z,84.30
2022-11-15T07:02:48.526Z,84.30
2022-11-15T07:05:15.724Z,84.30
2022-11-15T07:07:42.445Z,84.30
2022-11-15T07:10:09.643Z,84.30
2022-11-15T07:12:36.214Z,84.30
2022-11-15T07:15:02.952Z,84.30
2022-11-15T07:17:29.496Z,84.30
2022-11-15T07:19:56.068Z,84.30
2022-11-15T07:22:22.669Z,84.30
2022-11-15T07:24:49.235Z,84.30
2022-11-15T07:27:15.898Z,84.30
2022-11-15T07:29:42.579Z,84.30
2022-11-15T07:32:10.270Z,84.30
2022-11-15T07:34:37.052Z,84.30
2022-11-15T07:37:03.828Z,84.30
2022-11-15T07:39:30.382Z,84.30
2022-11-15T07:42:16.906Z,84.40
2022-11-15T07:44:43.475Z,84.30
2022-11-15T07:47:10.029Z,84.30
2022-11-15T07:49:36.633Z,84.10
2022-11-15T07:52:03.330Z,84.10
2022-11-15T07:54:29.878Z,84.10
2022-11-15T07:56:56.450Z,84.10
2022-11-15T07:59:23.035Z,84.10
2022-11-15T08:01:49.789Z,84.10
2022-11-15T08:04:16.430Z,84.10
2022-11-15T08:06:43.078Z,84.00
2022-11-15T08:09:09.626Z,83.90
2022-11-15T08:11:36.446Z,83.80
2022-11-15T08:14:02.999Z,83.90
2022-11-15T08:16:29.573Z,83.80
2022-11-15T08:18:56.120Z,83.80
2022-11-15T08:21:23.166Z,83.80
2022-11-15T08:23:49.771Z,83.80
2022-11-15T08:26:16.499Z,83.90
2022-11-15T08:28:43.441Z,83.80
2022-11-15T08:31:18.596Z,83.80
2022-11-15T08:33:45.803Z,83.90
2022-11-15T08:36:17.522Z,83.90
2022-11-15T08:38:44.243Z,83.90
2022-11-15T08:41:17.725Z,83.70
2022-11-15T08:43:44.261Z,83.60
2022-11-15T08:46:14.629Z,83.60
2022-11-15T08:48:41.214Z,83.60
2022-11-15T08:51:07.848Z,83.50
2022-11-15T08:53:35.443Z,83.50
2022-11-15T08:56:02.523Z,83.60
2022-11-15T08:58:29.761Z,84.40
2022-11-15T09:00:56.529Z,83.50
2022-11-15T09:03:23.180Z,83.70
2022-11-15T09:05:49.748Z,83.80
2022-11-15T09:08:40.899Z,83.80
2022-11-15T09:11:05.775Z,83.50
2022-11-15T09:13:32.638Z,83.50
2022-11-15T09:16:00.690Z,83.70
2022-11-15T09:18:28.209Z,84.50
2022-11-15T09:20:58.907Z,84.50
2022-11-15T09:23:26.342Z,82.90
2022-11-15T09:25:54.135Z,82.10
2022-11-15T09:28:20.690Z,81.70
2022-11-15T09:30:47.318Z,81.50
2022-11-15T09:33:14.042Z,81.50
2022-11-15T09:35:41.812Z,81.40
2022-11-15T09:38:08.386Z,81.40
2022-11-15T09:40:38.227Z,81.70
2022-11-15T09:43:29.121Z,81.60
2022-11-15T09:46:10.919Z,82.00
2022-11-15T09:48:57.959Z,81.50
2022-11-15T09:51:30.248Z,81.20
2022-11-15T09:54:37.850Z,80.80
2022-11-15T09:57:04.540Z,80.10
2022-11-15T09:59:42.285Z,80.60
2022-11-15T10:02:27.690Z,80.40
2022-11-15T10:04:54.811Z,79.40
2022-11-15T10:07:46.491Z,78.60
2022-11-15T10:10:36.066Z,76.90
2022-11-15T10:13:03.282Z,76.80
2022-11-15T10:15:30.114Z,76.00
2022-11-15T10:18:19.811Z,75.40
2022-11-15T10:20:55.215Z,75.10
2022-11-15T10:23:23.581Z,75.30
2022-11-15T10:25:56.036Z,74.90
2022-11-15T10:28:28.434Z,75.10
2022-11-15T10:30:57.880Z,75.30
2022-11-15T10:33:30.503Z,75.50
2022-11-15T10:36:16.988Z,75.40
2022-11-15T10:38:49.991Z,75.20
2022-11-15T10:41:27.938Z,75.20
2022-11-15T10:44:19.851Z,75.20
2022-11-15T10:47:06.782Z,74.60
2022-11-15T10:49:34.935Z,74.90
2022-11-15T10:52:20.281Z,74.20
2022-11-15T10:55:04.413Z,74.70
2022-11-15T10:57:36.630Z,74.60
2022-11-15T11:00:21.527Z,74.40
2022-11-15T11:02:57.307Z,73.80
2022-11-15T11:05:42.370Z,73.50
2022-11-15T11:08:15.220Z,73.80
2022-11-15T11:11:00.273Z,74.00
2022-11-15T11:13:32.101Z,73.90
2022-11-15T11:16:17.262Z,73.70
2022-11-15T11:18:55.765Z,73.40
2022-11-15T11:21:54.564Z,72.90
2022-11-15T11:24:58.046Z,73.00
2022-11-15T11:27:43.417Z,72.80
2022-11-15T11:30:23.012Z,73.00
2022-11-15T11:33:19.455Z,72.90
2022-11-15T11:36:17.073Z,72.70
2022-11-15T11:38:58.968Z,72.90
2022-11-15T11:41:39.375Z,73.40
2022-11-15T11:44:20.285Z,72.60
2022-11-15T11:46:50.481Z,72.80
2022-11-15T11:49:24.158Z,72.80
2022-11-15T11:52:01.557Z,72.80
2022-11-15T11:54:57.402Z,72.20
2022-11-15T11:57:44.717Z,72.00
2022-11-15T12:00:28.410Z,70.70
2022-11-15T12:03:25.299Z,68.80
2022-11-15T12:06:03.318Z,69.10
2022-11-15T12:08:44.359Z,67.90
2022-11-15T12:11:32.399Z,66.30
2022-11-15T12:14:02.142Z,66.20
2022-11-15T12:16:31.226Z,65.10
2022-11-15T12:19:01.258Z,65.90
2022-11-15T12:21:49.161Z,65.80
2022-11-15T12:24:25.574Z,65.80
2022-11-15T12:27:28.141Z,65.20
2022-11-15T12:29:59.184Z,65.00
2022-11-15T12:32:28.178Z,65.40
2022-11-15T12:34:56.119Z,65.80
2022-11-15T12:37:49.573Z,65.90
2022-11-15T12:40:34.430Z,66.10
2022-11-15T12:43:02.811Z,66.20
2022-11-15T12:45:35.985Z,66.80
2022-11-15T12:48:17.729Z,65.30
2022-11-15T12:50:54.755Z,66.00
2022-11-15T12:53:24.443Z,65.80
2022-11-15T12:56:13.023Z,66.00
2022-11-15T12:58:53.740Z,65.90
2022-11-15T13:01:36.004Z,65.40
2022-11-15T13:04:28.050Z,66.00
2022-11-15T13:07:02.270Z,65.90
2022-11-15T13:09:37.772Z,65.70
2022-11-15T13:12:24.140Z,66.00
2022-11-15T13:14:58.510Z,66.00
2022-11-15T13:17:48.149Z,65.90
2022-11-15T13:20:17.491Z,66.00
2022-11-15T13:23:01.889Z,66.30
2022-11-15T13:25:40.555Z,66.20
2022-11-15T13:28:16.243Z,66.20
2022-11-15T13:31:04.087Z,66.00
2022-11-15T13:33:39.821Z,65.80
2022-11-15T13:36:23.993Z,66.90
2022-11-15T13:39:04.351Z,66.30
2022-11-15T13:41:34.135Z,66.10
2022-11-15T13:44:02.587Z,66.70
2022-11-15T13:46:31.013Z,66.60
2022-11-15T13:49:01.939Z,66.80
2022-11-15T13:51:38.223Z,66.80
2022-11-15T13:54:14.225Z,66.90
2022-11-15T13:56:47.702Z,67.10
2022-11-15T13:59:23.858Z,67.10
2022-11-15T14:01:51.541Z,67.30
2022-11-15T14:04:22.405Z,67.20
2022-11-15T14:06:55.364Z,67.00
2022-11-15T14:09:54.386Z,67.20
2022-11-15T14:12:33.442Z,67.00
2022-11-15T14:15:02.628Z,67.20
2022-11-15T14:17:29.144Z,67.20
2022-11-15T14:19:56.256Z,67.30
2022-11-15T14:22:27.163Z,67.20
2022-11-15T14:25:19.902Z,67.60
2022-11-15T14:28:12.134Z,67.80
2022-11-15T14:30:40.772Z,67.90
2022-11-15T14:33:25.910Z,68.10
2022-11-15T14:35:53.569Z,68.00
2022-11-15T14:38:20.175Z,68.00
2022-11-15T14:40:47.009Z,68.00
2022-11-15T14:43:13.993Z,67.90
2022-11-15T14:45:41.218Z,68.00
2022-11-15T14:48:08.512Z,67.90
2022-11-15T14:50:36.043Z,67.80
2022-11-15T14:53:03.623Z,67.90
2022-11-15T14:55:36.906Z,67.80
2022-11-15T14:58:04.911Z,67.90
2022-11-15T15:00:35.401Z,68.00
2022-11-15T15:03:02.782Z,67.90
2022-11-15T15:05:38.676Z,68.10
2022-11-15T15:08:06.445Z,68.00
2022-11-15T15:10:40.649Z,68.00
2022-11-15T15:13:24.439Z,68.10
2022-11-15T15:15:52.754Z,67.90
2022-11-15T15:18:20.839Z,68.00
2022-11-15T15:20:55.629Z,67.90
2022-11-15T15:23:23.899Z,68.00
2022-11-15T15:25:50.487Z,67.60
2022-11-15T15:28:17.266Z,67.90
2022-11-15T15:30:44.537Z,68.00
2022-11-15T15:33:11.209Z,68.00
2022-11-15T15:35:37.773Z,67.90
2022-11-15T15:38:05.527Z,68.20
2022-11-15T15:40:34.214Z,68.10
2022-11-15T15:43:01.248Z,67.80
2022-11-15T15:45:29.081Z,67.60
2022-11-15T15:47:56.164Z,67.70
2022-11-15T15:50:24.518Z,67.70
2022-11-15T15:52:52.821Z,67.40
2022-11-15T15:55:20.003Z,67.50
2022-11-15T15:57:46.975Z,67.40
2022-11-15T16:00:14.579Z,67.60
2022-11-15T16:02:41.841Z,67.50
2022-11-15T16:05:09.680Z,67.50
2022-11-15T16:07:36.423Z,67.60
2022-11-15T16:10:17.134Z,67.70
2022-11-15T16:12:43.699Z,67.90
2022-11-15T16:15:10.463Z,67.70
2022-11-15T16:17:41.882Z,67.70
2022-11-15T16:20:36.527Z,67.70
2022-11-15T16:23:09.142Z,67.50
2022-11-15T16:25:39.262Z,67.50
2022-11-15T16:28:05.859Z,67.40
2022-11-15T16:30:32.457Z,67.30
2022-11-15T16:32:59.100Z,67.30
2022-11-15T16:35:25.754Z,67.30
2022-11-15T16:37:52.379Z,67.30
2022-11-15T16:40:23.946Z,67.30
2022-11-15T16:42:50.586Z,67.30
2022-11-15T16:45:17.587Z,68.10
2022-11-15T16:47:44.132Z,67.40
2022-11-15T16:50:29.992Z,67.50
2022-11-15T16:52:58.205Z,67.70
2022-11-15T16:55:27.917Z,67.70
2022-11-15T16:57:56.010Z,67.60
2022-11-15T17:00:22.618Z,67.70
2022-11-15T17:02:50.438Z,67.90
2022-11-15T17:05:20.405Z,68.10
2022-11-15T17:07:50.310Z,68.40
2022-11-15T17:10:17.253Z,68.70
2022-11-15T17:12:43.855Z,68.90
2022-11-15T17:15:13.434Z,69.20
2022-11-15T17:17:41.217Z,69.60
2022-11-15T17:20:16.028Z,69.70
2022-11-15T17:22:42.767Z,69.90
2022-11-15T17:25:09.944Z,70.30
2022-11-15T17:27:36.519Z,70.70
2022-11-15T17:30:12.152Z,71.30
2022-11-15T17:32:39.051Z,71.30
2022-11-15T17:35:14.855Z,71.80
2022-11-15T17:37:42.028Z,72.20
2022-11-15T17:40:09.286Z,72.60
2022-11-15T17:42:35.905Z,73.00
2022-11-15T17:45:08.177Z,73.20
2022-11-15T17:47:36.420Z,73.60
2022-11-15T17:50:03.414Z,73.90
2022-11-15T17:52:29.959Z,74.10
2022-11-15T17:54:56.528Z,74.20
2022-11-15T17:57:23.066Z,74.50
2022-11-15T17:59:49.634Z,74.80
2022-11-15T18:02:16.577Z,75.20
2022-11-15T18:04:43.134Z,75.30
2022-11-15T18:07:11.576Z,75.70
2022-11-15T18:09:42.083Z,75.70
2022-11-15T18:12:08.997Z,75.80
2022-11-15T18:14:35.527Z,76.10
2022-11-15T18:17:02.083Z,76.30
2022-11-15T18:19:28.634Z,76.40
2022-11-15T18:21:58.772Z,76.60
2022-11-15T18:24:36.666Z,76.70
2022-11-15T18:27:05.019Z,76.90
2022-11-15T18:29:32.480Z,77.10
2022-11-15T18:31:59.271Z,77.50
2022-11-15T18:34:33.629Z,77.50
2022-11-15T18:37:02.567Z,77.70
2022-11-15T18:39:29.630Z,77.80
2022-11-15T18:41:56.180Z,78.00
2022-11-15T18:44:23.077Z,78.30
2022-11-15T18:46:50.834Z,79.00
2022-11-15T18:49:17.850Z,78.70
2022-11-15T18:51:44.489Z,78.70
2022-11-15T18:54:12.954Z,78.70
2022-11-15T18:56:40.509Z,78.80
2022-11-15T18:59:08.621Z,79.00
2022-11-15T19:01:37.785Z,79.10
2022-11-15T19:04:10.246Z,79.30
2022-11-15T19:06:41.816Z,79.40
2022-11-15T19:09:09.710Z,79.50
2022-11-15T19:11:39.257Z,79.50
2022-11-15T19:14:11.519Z,79.60
2022-11-15T19:16:49.771Z,79.70
2022-11-15T19:19:18.529Z,79.80
2022-11-15T19:21:45.687Z,80.00
2022-11-15T19:24:12.507Z,80.10
2022-11-15T19:26:39.928Z,80.00
2022-11-15T19:29:10.137Z,80.20
2022-11-15T19:31:37.498Z,80.20
2022-11-15T19:34:05.437Z,80.20
2022-11-15T19:36:37.630Z,80.30
2022-11-15T19:39:09.534Z,80.40
2022-11-15T19:41:38.383Z,80.50
2022-11-15T19:44:06.378Z,80.50
2022-11-15T19:46:32.990Z,80.50
2022-11-15T19:48:59.722Z,80.70
2022-11-15T19:51:29.195Z,80.70
2022-11-15T19:53:58.124Z,80.80
2022-11-15T19:56:24.810Z,80.90
2022-11-15T19:58:55.632Z,80.90
2022-11-15T20:01:27.460Z,81.00
2022-11-15T20:03:55.957Z,81.00
2022-11-15T20:06:25.042Z,81.10
2022-11-15T20:08:52.217Z,81.20
2022-11-15T20:11:19.511Z,81.20
2022-11-15T20:13:46.861Z,81.20
2022-11-15T20:16:19.360Z,81.30
2022-11-15T20:18:46.632Z,81.40
2022-11-15T20:21:13.955Z,81.50
2022-11-15T20:23:41.551Z,81.80
2022-11-15T20:26:09.770Z,81.70
2022-11-15T20:28:37.685Z,81.80
2022-11-15T20:31:04.739Z,81.80
2022-11-15T20:33:31.437Z,81.90
2022-11-15T20:35:58.107Z,81.90
2022-11-15T20:38:24.735Z,81.90
2022-11-15T20:40:56.053Z,82.00
2022-11-15T20:43:25.675Z,82.10
2022-11-15T20:45:52.281Z,82.30
2022-11-15T20:48:18.890Z,82.30
2022-11-15T20:50:47.019Z,82.30
2022-11-15T20:53:17.077Z,82.30
2022-11-15T20:55:47.714Z,82.30
2022-11-15T20:58:15.907Z,82.40
2022-11-15T21:00:44.612Z,82.40
2022-11-15T21:03:12.397Z,82.50
2022-11-15T21:05:40.774Z,82.50
2022-11-15T21:08:08.047Z,82.60
2022-11-15T21:10:53.413Z,82.70
2022-11-15T21:13:20.690Z,82.60
2022-11-15T21:15:47.337Z,82.70
2022-11-15T21:18:14.235Z,82.70
2022-11-15T21:20:41.351Z,82.80
2022-11-15T21:23:08.273Z,82.90
2022-11-15T21:25:34.858Z,82.80
2022-11-15T21:28:01.534Z,82.90
2022-11-15T21:30:28.153Z,83.00
2022-11-15T21:32:54.929Z,83.00
2022-11-15T21:35:22.495Z,83.00
2022-11-15T21:37:54.976Z,83.10
2022-11-15T21:40:23.283Z,83.00
2022-11-15T21:42:49.884Z,83.10
2022-11-15T21:45:16.835Z,83.00
2022-11-15T21:47:46.404Z,83.00
2022-11-15T21:50:13.594Z,83.10
2022-11-15T21:52:40.500Z,83.10
2022-11-15T21:55:07.814Z,83.20
2022-11-15T21:57:34.519Z,83.20
2022-11-15T22:00:19.647Z,83.20
2022-11-15T22:02:46.245Z,83.30
2022-11-15T22:05:12.928Z,83.30
2022-11-15T22:07:39.548Z,83.30
2022-11-15T22:10:06.707Z,83.30
2022-11-15T22:12:33.387Z,83.40
2022-11-15T22:15:00.009Z,83.40
2022-11-15T22:17:46.559Z,83.40
2022-11-15T22:20:37.567Z,83.40
2022-11-15T22:23:00.293Z,83.30
2022-11-15T22:25:26.898Z,83.30
2022-11-15T22:27:53.767Z,83.30
2022-11-15T22:30:20.538Z,83.30
2022-11-15T22:32:47.254Z,83.30
2022-11-15T22:35:13.926Z,83.40
2022-11-15T22:37:40.535Z,83.40
2022-11-15T22:40:07.660Z,83.40
2022-11-15T22:42:34.578Z,83.40
2022-11-15T22:45:01.143Z,83.40
2022-11-15T22:47:27.731Z,83.30
2022-11-15T22:49:54.296Z,83.30
2022-11-15T22:52:20.848Z,83.30
2022-11-15T22:54:47.437Z,83.40
2022-11-15T22:57:14.000Z,83.40
2022-11-15T22:59:41.879Z,83.40
2022-11-15T23:02:08.602Z,83.50
2022-11-15T23:04:35.215Z,83.60
2022-11-15T23:07:01.888Z,83.60
2022-11-15T23:09:28.523Z,83.60
2022-11-15T23:12:13.706Z,83.70
2022-11-15T23:14:40.276Z,83.60
2022-11-15T23:17:06.998Z,83.60
2022-11-15T23:19:33.638Z,83.70
2022-11-15T23:22:19.113Z,83.70
2022-11-15T23:24:45.831Z,83.60
2022-11-15T23:27:15.469Z,83.70
2022-11-15T23:30:00.411Z,83.70
2022-11-15T23:32:45.897Z,83.70
2022-11-15T23:35:12.512Z,83.60
2022-11-15T23:37:39.164Z,83.60
2022-11-15T23:40:06.486Z,83.60
2022-11-15T23:42:33.120Z,83.70
2022-11-15T23:44:59.681Z,83.70
2022-11-15T23:47:26.506Z,83.80
2022-11-15T23:49:53.062Z,83.80
2022-11-15T23:52:20.216Z,83.70
2022-11-15T23:54:46.824Z,83.70
2022-11-15T23:57:13.396Z,83.70
2022-11-15T23:59:43.291Z,83.80
